CheckWX is a tool to help pilots better visualize weather data.  It is not intended as a substitute for an official pre-flight weather briefing.

14:19:51 UTC

KALB TAF
Albany International Airport
Albany, New York, USA
KALB 161141Z 1612/1712 VRB03KT P6SM VCSH SCT100 BKN200 TEMPO 1612/1615 BKN080 OVC100 FM161500 19007KT P6SM BKN080 BKN120 FM162200 18004KT P6SM VCSH BKN045 BKN080

Jul-16@
12:00 UTC

Jul-16 @ 12:00 UTC

Jul-16@
15:00 UTC

Jul-16 @ 15:00 UTC

KALB 161141Z 1612/1712 VRB03KT P6SM VCSH SCT100 BKN200
Wind
  • Variable at 3 KTS
Cloud Levels
  • Scattered at 10,000' AGL
  • Broken at 20,000' AGL

Jul-16@
12:00 UTC

Jul-16 @ 12:00 UTC

Jul-16@
15:00 UTC

Jul-16 @ 15:00 UTC

TEMPO 1612/1615 BKN080 OVC100

Temporary

Temporary Changes expected for less than half the time period

Cloud Levels
  • Broken at 8,000' AGL
  • Overcast at 10,000' AGL

Jul-16@
15:00 UTC

Jul-16 @ 15:00 UTC

Jul-16@
22:00 UTC

Jul-16 @ 22:00 UTC

FM161500 19007KT P6SM BKN080 BKN120

From

From Standard forecast or significant change

Wind
  • 190° at 7 KTS
Cloud Levels
  • Broken at 8,000' AGL
  • Broken at 12,000' AGL

Jul-16@
22:00 UTC

Jul-16 @ 22:00 UTC

Jul-17@
12:00 UTC

Jul-17 @ 12:00 UTC

FM162200 18004KT P6SM VCSH BKN045 BKN080

From

From Standard forecast or significant change

Wind
  • 180° at 4 KTS
Cloud Levels
  • Broken at 4,500' AGL
  • Broken at 8,000' AGL